Time;durP1;ratioP1;P1;durP2;ratioP2;P2;SDS_P1;SDS_P2;PMS_P1;PMS_P2;Temp;Humidity;BMP_temperature;BMP_pressure;BME280_temperature;BME280_humidity;BME280_pressure;Samples;Min_cycle;Max_cycle;Signal;HPM_P1;HPM_P2
2022/09/25 00:00:21;;;;;;;5.30;1.70;;;;;;;9.88;100.00;101484.56;6151857;23;20855;-71
2022/09/25 00:02:46;;;;;;;5.60;1.50;;;;;;;9.67;100.00;101413.72;6125811;23;20168;-71
2022/09/25 00:05:12;;;;;;;2.50;1.00;;;;;;;10.76;100.00;101593.16;6150246;23;20185;-71
2022/09/25 00:07:37;;;;;;;6.20;1.30;;;;;;;10.11;100.00;101516.72;6149730;23;20157;-71
2022/09/25 00:10:03;;;;;;;4.60;1.70;;;;;;;9.61;100.00;101488.59;6151096;23;20247;-71
2022/09/25 00:12:28;;;;;;;5.50;1.30;;;;;;;9.48;100.00;101489.97;6149397;23;20157;-71
2022/09/25 00:14:54;;;;;;;3.80;1.27;;;;;;;9.79;100.00;101515.94;6150142;23;20639;-72
2022/09/25 00:17:20;;;;;;;4.33;1.37;;;;;;;9.50;100.00;101487.97;6125097;23;20157;-72
2022/09/25 00:19:51;;;;;;;6.37;1.53;;;;;;;10.58;100.00;101599.66;6125451;23;20444;-72
2022/09/25 00:22:22;;;;;;;2.50;1.30;;;;;;;10.54;100.00;101609.09;6149447;23;20138;-71
2022/09/25 00:24:48;;;;;;;3.17;1.30;;;;;;;10.18;100.00;101521.19;6149885;23;20404;-72
2022/09/25 00:27:13;;;;;;;2.87;1.03;;;;;;;9.76;100.00;101448.47;6125402;23;20433;-72
2022/09/25 00:29:39;;;;;;;6.53;1.40;;;;;;;10.46;100.00;101550.16;6125613;23;20161;-71
2022/09/25 00:32:07;;;;;;;2.20;0.87;;;;;;;9.66;100.00;101441.53;6123544;23;20236;-71
2022/09/25 00:34:32;;;;;;;3.93;1.50;;;;;;;10.93;100.00;101594.66;6125189;23;20181;-71
2022/09/25 00:36:58;;;;;;;7.80;1.40;;;;;;;10.94;100.00;101620.50;6124877;23;20400;-71
2022/09/25 00:39:24;;;;;;;3.90;1.50;;;;;;;10.98;100.00;101578.84;6150884;23;20180;-71
2022/09/25 00:41:50;;;;;;;5.20;1.20;;;;;;;10.38;100.00;101523.41;6123323;23;20181;-71
2022/09/25 00:44:56;;;;;;;6.47;1.70;;;;;;;11.02;100.00;101593.59;6147902;23;20459;-71
2022/09/25 00:47:43;;;;;;;3.97;1.20;;;;;;;10.27;100.00;101475.56;6151427;23;20387;-71
2022/09/25 00:50:21;;;;;;;6.20;1.60;;;;;;;11.05;100.00;101595.91;6152291;23;20851;-71
2022/09/25 00:52:48;;;;;;;3.90;1.33;;;;;;;11.19;100.00;101596.09;6149955;23;20871;-71
2022/09/25 00:55:14;;;;;;;9.90;1.20;;;;;;;10.30;100.00;101484.09;6151780;23;20424;-72
2022/09/25 00:57:45;;;;;;;3.73;1.10;;;;;;;11.12;100.00;101585.25;6124866;23;20802;-72
2022/09/25 01:00:11;;;;;;;6.57;1.47;;;;;;;10.52;100.00;101468.13;6125917;23;20816;-71
2022/09/25 01:02:41;;;;;;;2.40;1.00;;;;;;;10.58;100.00;101494.22;6148884;23;20840;-71
2022/09/25 01:05:13;;;;;;;3.53;1.50;;;;;;;11.06;100.00;101596.72;6124493;23;20459;-71
2022/09/25 01:07:41;;;;;;;2.97;1.17;;;;;;;11.17;100.00;101595.47;6125738;23;20463;-72
2022/09/25 01:10:08;;;;;;;7.47;2.43;;;;;;;10.39;100.00;101503.63;6124659;23;20487;-71
2022/09/25 01:12:42;;;;;;;5.17;1.40;;;;;;;10.65;100.00;101553.38;6122510;23;20384;-72
2022/09/25 01:15:11;;;;;;;7.77;1.80;;;;;;;10.25;100.00;101485.63;6123641;23;20412;-72
2022/09/25 01:18:01;;;;;;;2.97;1.20;;;;;;;10.97;100.00;101605.88;6122945;23;20384;-71
2022/09/25 01:20:51;;;;;;;3.80;1.10;;;;;;;11.23;100.00;101586.66;6121610;23;20801;-72
2022/09/25 01:23:54;;;;;;;3.10;1.10;;;;;;;11.02;100.00;101582.00;6120539;23;20408;-71
2022/09/25 01:26:38;;;;;;;8.50;1.57;;;;;;;11.12;100.00;101593.31;6146515;23;20420;-71
2022/09/25 01:29:45;;;;;;;8.17;1.43;;;;;;;11.03;100.00;101589.88;6149025;23;20374;-71
2022/09/25 01:32:35;;;;;;;4.73;1.67;;;;;;;10.99;100.00;101591.28;6109122;23;20738;-71
2022/09/25 01:35:22;;;;;;;6.87;1.50;;;;;;;10.01;100.00;101452.66;6123557;23;20772;-71
2022/09/25 01:38:09;;;;;;;3.27;1.03;;;;;;;10.93;100.00;101596.50;6147424;23;20365;-71
2022/09/25 01:40:51;;;;;;;3.47;0.80;;;;;;;10.95;100.00;101575.72;6148003;23;20365;-72
2022/09/25 01:43:24;;;;;;;3.97;1.50;;;;;;;10.14;100.00;101452.84;6120826;23;20444;-71
2022/09/25 01:46:00;;;;;;;3.73;1.20;;;;;;;10.95;100.00;101598.00;6119865;23;20487;-72
2022/09/25 01:48:29;;;;;;;4.70;1.37;;;;;;;10.50;100.00;101527.34;6121844;23;20376;-71
2022/09/25 01:51:00;;;;;;;3.83;1.20;;;;;;;11.09;100.00;101588.31;6145466;23;20420;-72
2022/09/25 01:53:31;;;;;;;4.83;1.00;;;;;;;11.04;100.00;101583.47;6145639;23;20408;-71
2022/09/25 01:56:31;;;;;;;4.10;1.63;;;;;;;10.82;100.00;101585.22;6121005;23;20699;-71
2022/09/25 01:59:07;;;;;;;5.77;1.80;;;;;;;11.01;100.00;101604.50;6114640;23;20419;-71
2022/09/25 02:01:37;;;;;;;4.13;1.60;;;;;;;10.02;100.00;101461.53;6147691;23;20369;-71
2022/09/25 02:04:26;;;;;;;2.77;1.20;;;;;;;9.90;100.00;101389.59;6145466;23;20462;-71
2022/09/25 02:06:56;;;;;;;4.60;1.43;;;;;;;11.07;100.00;101585.78;6149485;23;20440;-71
2022/09/25 02:09:33;;;;;;;3.23;1.10;;;;;;;10.93;100.00;101572.34;6119740;23;21332;-71
2022/09/25 02:12:07;;;;;;;10.40;1.60;;;;;;;10.46;100.00;101496.50;6148166;23;20392;-72
2022/09/25 02:14:34;;;;;;;4.23;0.90;;;;;;;10.85;100.00;101573.28;6119352;23;20409;-71
2022/09/25 02:17:06;;;;;;;4.73;1.40;;;;;;;10.69;100.00;101579.63;6146210;23;20431;-71
2022/09/25 02:22:21;;;;;;;4.03;1.10;;;;;;;10.43;100.00;101582.69;6147847;23;20373;-71
2022/09/25 02:25:45;;;;;;;3.63;1.10;;;;;;;10.78;100.00;101585.75;6123318;23;20418;-71
2022/09/25 02:28:10;;;;;;;6.00;1.80;;;;;;;10.72;100.00;101587.31;6006020;23;20490;-71
2022/09/25 02:30:36;;;;;;;2.23;1.03;;;;;;;10.48;100.00;101504.38;6005711;23;20424;-71
2022/09/25 02:33:01;;;;;;;3.30;1.03;;;;;;;10.60;100.00;101576.19;6100034;23;20169;-71
2022/09/25 02:35:27;;;;;;;3.30;1.00;;;;;;;10.79;100.00;101572.19;6149421;23;20149;-71
2022/09/25 02:37:55;;;;;;;4.27;1.10;;;;;;;9.81;100.00;101478.25;6123826;23;20166;-71
2022/09/25 02:40:33;;;;;;;4.50;0.93;;;;;;;10.60;100.00;101578.03;6123928;23;20165;-71
2022/09/25 02:43:05;;;;;;;3.83;1.10;;;;;;;9.24;100.00;101357.09;6123180;23;20452;-71
2022/09/25 02:46:12;;;;;;;3.83;1.10;;;;;;;10.36;100.00;101528.13;6150040;23;21188;-71
2022/09/25 02:48:58;;;;;;;2.17;0.73;;;;;;;10.63;100.00;101577.69;6110915;23;20472;-71
2022/09/25 02:51:38;;;;;;;3.30;1.30;;;;;;;10.61;100.00;101575.16;6151070;23;20365;-71
2022/09/25 02:54:29;;;;;;;4.70;0.93;;;;;;;9.67;100.00;101488.72;6123287;23;20998;-71
2022/09/25 02:57:05;;;;;;;1.77;0.80;;;;;;;10.21;100.00;101572.78;6124843;23;20380;-71
2022/09/25 02:59:37;;;;;;;6.40;0.93;;;;;;;10.39;100.00;101594.81;6150872;23;20832;-71
2022/09/25 03:02:02;;;;;;;3.70;0.90;;;;;;;9.36;100.00;101447.72;6123980;23;20467;-71
2022/09/25 03:04:31;;;;;;;2.77;1.00;;;;;;;10.42;100.00;101586.41;6151042;23;20397;-71
2022/09/25 03:06:57;;;;;;;1.80;0.80;;;;;;;10.43;100.00;101589.91;6124215;23;20644;-71
2022/09/25 03:09:24;;;;;;;4.47;1.30;;;;;;;10.53;100.00;101577.06;6150206;23;20387;-71
2022/09/25 03:11:50;;;;;;;4.87;1.10;;;;;;;10.26;100.00;101581.94;6148826;23;20381;-71
2022/09/25 03:14:15;;;;;;;4.40;0.93;;;;;;;9.05;100.00;101403.03;6122744;23;20405;-71
2022/09/25 03:16:56;;;;;;;5.17;0.97;;;;;;;9.43;100.00;101443.31;6150010;23;20384;-71
2022/09/25 03:19:27;;;;;;;2.93;0.97;;;;;;;10.07;100.00;101580.59;6149055;23;20141;-71
2022/09/25 03:21:56;;;;;;;2.50;0.83;;;;;;;9.21;100.00;101437.75;6148943;23;20480;-71
2022/09/25 03:24:22;;;;;;;2.53;0.83;;;;;;;9.44;100.00;101491.34;6123694;23;20408;-71
2022/09/25 03:26:47;;;;;;;4.87;1.03;;;;;;;9.45;100.00;101436.78;6121756;23;20432;-71
2022/09/25 03:29:16;;;;;;;3.33;0.90;;;;;;;9.66;100.00;101500.44;6123825;23;20157;-71
2022/09/25 03:31:42;;;;;;;3.57;0.90;;;;;;;9.41;100.00;101461.44;6123890;23;20161;-71
2022/09/25 03:34:12;;;;;;;2.80;0.90;;;;;;;9.64;100.00;101459.59;6149575;23;20876;-71
2022/09/25 03:36:38;;;;;;;2.70;0.80;;;;;;;10.25;100.00;101579.47;6149688;23;20380;-71
2022/09/25 03:39:04;;;;;;;2.43;0.90;;;;;;;10.46;100.00;101576.97;6124119;23;20396;-70
2022/09/25 03:41:32;;;;;;;2.13;0.80;;;;;;;10.16;100.00;101566.09;6122047;23;20388;-71
2022/09/25 03:43:58;;;;;;;4.03;1.07;;;;;;;10.14;100.00;101554.72;6145853;23;20416;-71
2022/09/25 03:46:29;;;;;;;1.87;0.80;;;;;;;10.17;100.00;101581.16;6149248;23;20456;-71
2022/09/25 03:48:56;;;;;;;2.67;0.80;;;;;;;10.08;100.00;101590.28;6123547;23;20797;-71
2022/09/25 03:51:22;;;;;;;2.23;0.90;;;;;;;10.17;100.00;101577.66;6123358;23;20439;-71
2022/09/25 03:53:49;;;;;;;3.27;0.93;;;;;;;9.51;100.00;101444.09;6119978;23;20400;-71
2022/09/25 03:56:19;;;;;;;2.30;0.80;;;;;;;10.13;100.00;101539.66;6148845;23;20824;-71
2022/09/25 03:58:46;;;;;;;3.17;1.03;;;;;;;10.14;100.00;101572.66;6122755;23;20391;-71
2022/09/25 04:01:12;;;;;;;2.40;0.77;;;;;;;10.13;100.00;101592.44;6124003;23;20489;-71
2022/09/25 04:03:38;;;;;;;3.47;0.90;;;;;;;10.06;100.00;101549.41;6150515;23;20400;-71
2022/09/25 04:06:06;;;;;;;4.63;1.17;;;;;;;9.56;100.00;101502.50;6125765;23;20921;-71
2022/09/25 04:08:34;;;;;;;3.80;1.07;;;;;;;9.24;100.00;101466.03;6124729;23;20168;-71
2022/09/25 04:10:59;;;;;;;2.67;1.00;;;;;;;10.05;100.00;101581.78;6122518;23;20391;-71
2022/09/25 04:13:30;;;;;;;5.97;1.20;;;;;;;10.25;100.00;101574.09;6150905;23;20494;-71
2022/09/25 04:15:57;;;;;;;4.10;0.80;;;;;;;9.77;100.00;101503.72;6149863;23;20134;-71
2022/09/25 04:18:23;;;;;;;3.30;1.10;;;;;;;9.58;100.00;101473.72;6150653;23;20396;-71
2022/09/25 04:20:49;;;;;;;2.23;0.83;;;;;;;9.94;100.00;101585.69;6124162;23;20389;-71
2022/09/25 04:23:15;;;;;;;1.90;0.80;;;;;;;8.91;100.00;101393.94;6147811;23;20404;-71
2022/09/25 04:25:40;;;;;;;4.77;1.00;;;;;;;9.87;100.00;101553.41;6125087;23;20173;-71
2022/09/25 04:28:05;;;;;;;3.70;1.20;;;;;;;9.93;100.00;101527.75;6150399;23;20153;-72
2022/09/25 04:30:32;;;;;;;3.30;0.80;;;;;;;9.19;100.00;101404.16;6150242;23;20153;-70
2022/09/25 04:35:56;;;;;;;2.20;1.13;;;;;;;9.71;100.00;101522.16;6085703;23;20373;-71
2022/09/25 04:38:22;;;;;;;1.63;0.70;;;;;;;9.06;100.00;101434.16;6151221;23;20442;-71
2022/09/25 04:40:47;;;;;;;2.87;0.90;;;;;;;9.91;100.00;101522.53;6149992;23;20611;-71
2022/09/25 04:43:13;;;;;;;6.00;1.00;;;;;;;9.06;100.00;101426.13;6149305;23;20169;-71
2022/09/25 04:45:38;;;;;;;2.23;0.80;;;;;;;8.98;100.00;101460.94;6151094;23;20161;-71
2022/09/25 04:48:04;;;;;;;3.30;1.10;;;;;;;9.61;100.00;101539.50;6125665;23;20172;-71
2022/09/25 04:50:30;;;;;;;4.53;1.20;;;;;;;9.75;100.00;101552.13;6151965;23;20176;-71
2022/09/25 04:52:56;;;;;;;3.10;0.90;;;;;;;9.90;100.00;101534.28;6147901;23;20850;-71
2022/09/25 04:55:23;;;;;;;4.37;0.90;;;;;;;8.50;100.00;101347.78;6150796;23;20562;-71
2022/09/25 04:58:00;;;;;;;2.73;0.80;;;;;;;8.67;100.00;101397.50;6124291;23;20381;-71
2022/09/25 05:00:28;;;;;;;1.90;0.73;;;;;;;8.70;100.00;101420.41;6125707;23;20475;-71
2022/09/25 05:02:54;;;;;;;3.47;0.80;;;;;;;8.81;100.00;101423.53;6151429;23;20491;-71
2022/09/25 05:05:20;;;;;;;5.63;1.47;;;;;;;9.35;100.00;101537.09;6151956;23;20819;-71
2022/09/25 05:07:55;;;;;;;2.93;1.07;;;;;;;8.48;100.00;101397.94;6125625;23;20918;-71
2022/09/25 05:10:22;;;;;;;4.53;1.20;;;;;;;9.42;100.00;101535.38;6151368;23;20404;-70
2022/09/25 05:12:53;;;;;;;4.20;1.40;;;;;;;8.79;100.00;101387.28;6148191;23;20795;-71
2022/09/25 05:15:18;;;;;;;2.07;0.90;;;;;;;8.99;100.00;101463.44;6124118;23;20408;-71
2022/09/25 05:17:43;;;;;;;4.20;1.10;;;;;;;7.93;100.00;101325.53;6150060;23;20761;-71
2022/09/25 05:20:10;;;;;;;5.03;1.00;;;;;;;8.46;100.00;101430.16;6123960;23;20683;-71
2022/09/25 05:22:35;;;;;;;2.73;1.10;;;;;;;9.21;100.00;101566.25;6124354;23;20161;-71
2022/09/25 05:25:00;;;;;;;1.53;1.00;;;;;;;8.22;100.00;101436.38;6124408;23;20484;-71
2022/09/25 05:27:26;;;;;;;2.40;0.90;;;;;;;8.02;100.00;101409.16;6150205;23;20181;-71
2022/09/25 05:29:51;;;;;;;4.07;1.23;;;;;;;8.38;100.00;101408.75;6149322;23;20861;-71
2022/09/25 05:32:17;;;;;;;1.50;1.00;;;;;;;8.77;100.00;101497.13;6122118;23;20874;-70
2022/09/25 05:34:43;;;;;;;4.33;1.30;;;;;;;8.43;100.00;101429.69;6123680;23;20191;-71
2022/09/25 05:37:08;;;;;;;3.93;0.90;;;;;;;8.33;100.00;101430.69;6150412;23;20463;-71
2022/09/25 05:39:33;;;;;;;2.30;0.80;;;;;;;9.39;100.00;101554.47;6150524;23;20772;-71
2022/09/25 05:42:00;;;;;;;1.77;1.00;;;;;;;9.09;100.00;101537.34;6148923;23;20362;-71
2022/09/25 05:44:27;;;;;;;1.93;0.83;;;;;;;7.92;100.00;101379.94;6110658;23;20198;-67
2022/09/25 05:46:55;;;;;;;4.43;1.13;;;;;;;9.04;100.00;101544.03;6112778;23;20430;-67
2022/09/25 05:49:20;;;;;;;3.20;1.53;;;;;;;9.04;100.00;101557.41;6121441;23;20385;-67
2022/09/25 05:51:46;;;;;;;2.63;1.70;;;;;;;8.47;100.00;101465.75;6119494;23;20378;-66
2022/09/25 05:54:12;;;;;;;2.37;1.50;;;;;;;8.93;100.00;101514.97;6119318;23;20173;-66
2022/09/25 05:56:37;;;;;;;3.93;1.70;;;;;;;8.73;100.00;101465.53;6118191;23;20998;-66
2022/09/25 05:59:02;;;;;;;5.53;1.90;;;;;;;8.88;100.00;101501.28;6119031;23;20608;-66
2022/09/25 06:01:28;;;;;;;2.60;1.70;;;;;;;9.04;100.00;101513.78;6116388;23;20162;-66
2022/09/25 06:03:53;;;;;;;6.37;1.50;;;;;;;9.21;100.00;101558.22;6117422;23;20178;-67
2022/09/25 06:06:19;;;;;;;6.07;1.70;;;;;;;8.90;100.00;101507.28;6121035;23;20240;-67
2022/09/25 06:08:44;;;;;;;3.17;1.57;;;;;;;8.78;100.00;101496.13;6120941;23;20154;-68
2022/09/25 06:11:10;;;;;;;5.93;1.43;;;;;;;9.32;100.00;101559.69;6120220;23;20146;-68
2022/09/25 06:13:36;;;;;;;1.53;0.90;;;;;;;8.53;100.00;101454.38;6119554;23;20208;-68
2022/09/25 06:16:03;;;;;;;3.27;1.40;;;;;;;8.34;100.00;101427.00;6119925;23;20892;-68
2022/09/25 06:18:28;;;;;;;2.20;1.20;;;;;;;8.72;100.00;101491.44;6118621;23;20904;-68
2022/09/25 06:21:02;;;;;;;3.50;1.20;;;;;;;9.18;100.00;101571.94;6120860;23;20385;-69
2022/09/25 06:23:27;;;;;;;3.10;1.20;;;;;;;8.60;100.00;101464.22;6117779;23;20161;-68
2022/09/25 06:25:52;;;;;;;1.90;1.10;;;;;;;8.94;100.00;101483.69;6120629;23;20887;-68
2022/09/25 06:28:18;;;;;;;3.10;1.30;;;;;;;9.35;100.00;101547.81;6120653;23;20237;-68
2022/09/25 06:30:44;;;;;;;4.63;2.30;;;;;;;9.56;100.00;101561.44;6117614;23;20172;-68
2022/09/25 06:33:11;;;;;;;6.47;4.00;;;;;;;9.65;100.00;101565.72;6114258;23;20154;-68
2022/09/25 06:35:50;;;;;;;6.57;4.10;;;;;;;9.33;100.00;101513.16;6119078;23;20492;-68
2022/09/25 06:38:16;;;;;;;4.50;3.67;;;;;;;9.65;100.00;101565.72;6118232;23;20370;-68
2022/09/25 06:40:42;;;;;;;5.60;2.60;;;;;;;9.78;100.00;101564.31;6121508;23;20381;-68
2022/09/25 06:43:15;;;;;;;4.83;2.33;;;;;;;9.49;100.00;101522.97;6120498;23;20378;-68
2022/09/25 06:45:41;;;;;;;4.43;2.17;;;;;;;9.80;100.00;101514.09;6146557;23;20428;-68
2022/09/25 06:48:11;;;;;;;8.57;5.70;;;;;;;10.39;100.00;101565.31;6124277;23;20385;-68
2022/09/25 06:50:43;;;;;;;13.60;5.90;;;;;;;9.85;100.00;101501.81;6149494;23;20404;-68
2022/09/25 06:53:10;;;;;;;15.07;7.53;;;;;;;10.45;100.00;101571.81;6147868;23;20408;-68
2022/09/25 06:55:36;;;;;;;12.47;8.07;;;;;;;9.81;100.00;101462.19;6149195;23;20476;-68
2022/09/25 06:58:03;;;;;;;14.80;8.10;;;;;;;10.53;100.00;101571.72;6146399;23;20392;-68
2022/09/25 07:00:29;;;;;;;10.60;6.57;;;;;;;10.62;100.00;101565.28;6122691;23;20393;-68
2022/09/25 07:05:43;;;;;;;8.93;4.57;;;;;;;9.55;100.00;101404.44;6148082;23;20710;-69
2022/09/25 07:08:12;;;;;;;8.63;4.40;;;;;;;10.74;100.00;101568.38;6118463;23;20401;-68
2022/09/25 07:10:38;;;;;;;6.47;3.90;;;;;;;10.46;100.00;101483.09;6122635;23;20397;-68
2022/09/25 07:13:03;;;;;;;5.43;2.50;;;;;;;10.41;100.00;101464.03;6147576;23;20392;-68
2022/09/25 07:15:30;;;;;;;4.90;2.47;;;;;;;11.06;100.00;101573.41;6143122;23;20959;-68
2022/09/25 07:17:55;;;;;;;5.27;1.90;;;;;;;11.08;100.00;101541.84;6147987;23;20153;-67
2022/09/25 07:20:21;;;;;;;3.90;1.70;;;;;;;11.37;100.00;101574.22;6121470;23;20440;-68
2022/09/25 07:22:46;;;;;;;5.03;1.30;;;;;;;11.40;100.00;101553.22;6146609;23;20149;-68
2022/09/25 07:25:12;;;;;;;1.77;0.70;;;;;;;11.72;100.00;101572.63;6146837;23;20179;-68
2022/09/25 07:27:37;;;;;;;6.67;1.10;;;;;;;11.76;100.00;101553.25;6148970;23;20154;-68
2022/09/25 07:30:04;;;;;;;1.20;0.90;;;;;;;11.81;100.00;101562.59;6146193;23;20184;-67
2022/09/25 07:32:30;;;;;;;2.03;0.80;;;;;;;11.87;100.00;101529.63;6145623;23;20237;-67
2022/09/25 07:34:56;;;;;;;1.87;0.80;;;;;;;11.64;100.00;101492.94;6145246;23;20403;-67
2022/09/25 07:37:21;;;;;;;4.70;1.30;;;;;;;11.91;100.00;101507.53;6148693;23;20372;-68
2022/09/25 07:39:47;;;;;;;4.90;0.80;;;;;;;11.77;100.00;101493.09;6149100;23;20150;-68
2022/09/25 07:42:12;;;;;;;3.50;1.00;;;;;;;11.92;100.00;101500.31;6146905;23;20236;-68
2022/09/25 07:44:38;;;;;;;3.93;1.00;;;;;;;12.09;100.00;101507.09;6146885;23;20200;-68
2022/09/25 07:47:04;;;;;;;3.53;1.37;;;;;;;12.35;100.00;101525.34;6145840;23;20188;-68
2022/09/25 07:49:30;;;;;;;2.50;0.80;;;;;;;12.42;100.00;101528.06;6146954;23;20377;-69
2022/09/25 07:51:55;;;;;;;4.70;0.93;;;;;;;12.53;100.00;101549.09;6149276;23;20163;-68
2022/09/25 07:54:21;;;;;;;4.10;1.03;;;;;;;11.45;100.00;101361.91;6148082;23;20416;-67
2022/09/25 07:56:46;;;;;;;5.90;1.07;;;;;;;12.23;100.00;101491.91;6115824;23;20156;-70
2022/09/25 07:59:11;;;;;;;1.93;0.73;;;;;;;12.73;100.00;101545.69;6145319;23;20211;-66
2022/09/25 08:01:37;;;;;;;4.33;1.27;;;;;;;12.79;100.00;101548.44;6149988;23;20232;-66
2022/09/25 08:04:02;;;;;;;2.33;0.90;;;;;;;12.86;100.00;101541.25;6147395;23;20185;-66
2022/09/25 08:06:28;;;;;;;4.20;0.90;;;;;;;12.10;100.00;101413.81;6150716;23;20486;-68
2022/09/25 08:08:54;;;;;;;2.67;0.80;;;;;;;12.63;100.00;101487.66;6147237;23;20161;-68
2022/09/25 08:11:22;;;;;;;3.53;0.97;;;;;;;12.36;100.00;101437.41;6146746;23;20380;-68
2022/09/25 08:13:48;;;;;;;2.90;0.90;;;;;;;13.05;100.00;101541.59;6145830;23;20260;-68
2022/09/25 08:16:16;;;;;;;3.10;0.80;;;;;;;12.99;100.00;101539.66;6147956;23;20385;-68
2022/09/25 08:18:45;;;;;;;6.00;0.87;;;;;;;13.14;100.00;101542.25;6124580;23;20392;-68
2022/09/25 08:21:13;;;;;;;2.30;0.80;;;;;;;13.19;100.00;101542.47;6150916;23;20392;-68
2022/09/25 08:23:40;;;;;;;3.53;1.00;;;;;;;13.18;100.00;101535.44;6118450;23;20396;-68
2022/09/25 08:26:06;;;;;;;3.37;1.00;;;;;;;12.72;100.00;101458.72;6119967;23;20432;-67
2022/09/25 08:28:32;;;;;;;3.70;1.00;;;;;;;12.64;100.00;101437.34;6122289;23;20438;-67
2022/09/25 08:30:59;;;;;;;1.87;0.80;;;;;;;13.30;100.00;101544.63;6147506;23;20460;-67
2022/09/25 08:33:24;;;;;;;3.00;0.87;;;;;;;13.46;100.00;101530.84;6123557;23;20169;-66
2022/09/25 08:35:58;;;;;;;2.23;0.87;;;;;;;13.57;100.00;101524.03;6149401;23;20687;-67
2022/09/25 08:38:25;;;;;;;4.40;0.97;;;;;;;13.28;100.00;101471.28;6149489;23;20163;-68
2022/09/25 08:40:55;;;;;;;5.17;1.10;;;;;;;13.07;100.00;101424.53;6150101;23;20408;-68
2022/09/25 08:43:24;;;;;;;7.37;0.90;;;;;;;13.78;100.00;101518.50;6146519;23;20376;-68
2022/09/25 08:49:03;;;;;;;2.50;1.20;;;;;;;13.99;100.00;101520.19;6145128;23;20464;-68
2022/09/25 08:51:32;;;;;;;3.67;1.70;;;;;;;13.93;100.00;101490.53;6146157;23;20381;-67
2022/09/25 08:53:59;;;;;;;7.17;2.00;;;;;;;14.16;100.00;101517.94;6148047;23;20480;-67
2022/09/25 08:56:28;;;;;;;3.43;1.30;;;;;;;14.18;100.00;101523.97;6147068;23;20489;-67
2022/09/25 08:59:04;;;;;;;5.27;1.10;;;;;;;14.12;100.00;101518.59;6143160;23;20722;-67
2022/09/25 09:02:11;;;;;;;3.77;1.10;;;;;;;14.13;100.00;101520.25;6145266;23;20751;-67
2022/09/25 09:04:50;;;;;;;3.43;1.17;;;;;;;14.08;100.00;101518.13;6126561;23;20904;-68
2022/09/25 09:07:38;;;;;;;2.90;0.80;;;;;;;13.96;100.00;101517.09;6149634;23;20426;-68
2022/09/25 09:10:07;;;;;;;4.13;1.20;;;;;;;13.89;100.00;101513.56;6148795;23;20435;-68
2022/09/25 09:12:38;;;;;;;2.80;1.13;;;;;;;13.93;100.00;101515.63;6149126;23;20468;-68
2022/09/25 09:15:17;;;;;;;3.03;0.90;;;;;;;13.89;100.00;101513.56;6118158;23;20424;-67
2022/09/25 09:17:42;;;;;;;1.43;0.70;;;;;;;13.81;100.00;101524.53;6147176;23;20389;-67
2022/09/25 09:20:18;;;;;;;3.30;0.80;;;;;;;13.64;100.00;101521.38;6122565;23;20388;-68
2022/09/25 09:22:50;;;;;;;2.60;0.97;;;;;;;13.68;100.00;101523.47;6147634;23;20165;-68
2022/09/25 09:25:24;;;;;;;3.53;1.00;;;;;;;13.68;100.00;101523.47;6149815;23;20396;-67
2022/09/25 09:27:52;;;;;;;3.10;1.17;;;;;;;13.66;100.00;101522.00;6149912;23;20384;-68
2022/09/25 09:30:26;;;;;;;3.67;1.00;;;;;;;13.73;100.00;101517.44;6153510;23;20381;-67
2022/09/25 09:33:12;;;;;;;1.60;1.10;;;;;;;13.83;100.00;101512.50;6147802;23;20365;-67
2022/09/25 09:36:18;;;;;;;2.57;1.03;;;;;;;13.77;100.00;101489.06;6144513;23;21040;-69
2022/09/25 09:38:52;;;;;;;3.73;0.90;;;;;;;14.12;100.00;101511.31;6107790;23;20416;-67
2022/09/25 09:41:18;;;;;;;2.33;0.80;;;;;;;14.20;100.00;101505.72;6147486;23;20816;-67
2022/09/25 09:43:52;;;;;;;3.83;1.37;;;;;;;14.40;100.00;101502.19;6144337;23;20384;-67
2022/09/25 09:46:48;;;;;;;5.17;1.10;;;;;;;14.56;100.00;101495.56;6147563;23;20431;-67
2022/09/25 09:49:35;;;;;;;3.23;1.00;;;;;;;14.53;100.00;101513.03;6121273;23;20826;-67
2022/09/25 09:52:13;;;;;;;3.80;0.90;;;;;;;14.25;100.00;101480.81;6147989;23;20365;-67
2022/09/25 09:55:06;;;;;;;5.20;1.53;;;;;;;13.47;100.00;101316.91;6140885;23;20400;-67
2022/09/25 09:57:46;;;;;;;5.13;1.23;;;;;;;14.44;100.00;101439.50;6148827;23;20377;-67
2022/09/25 10:00:17;;;;;;;1.83;0.80;;;;;;;14.90;100.00;101494.50;6149029;23;20455;-67
2022/09/25 10:02:52;;;;;;;2.60;1.03;;;;;;;14.87;100.00;101478.72;6121915;23;20740;-66
2022/09/25 10:05:36;;;;;;;2.40;0.90;;;;;;;14.97;100.00;101483.66;6149237;23;20397;-67
2022/09/25 10:08:02;;;;;;;2.50;1.00;;;;;;;14.97;100.00;101446.66;6148743;23;20444;-67
2022/09/25 10:10:36;;;;;;;2.00;0.80;;;;;;;14.62;100.00;101397.53;6149618;23;20444;-66
2022/09/25 10:13:05;;;;;;;1.77;0.70;;;;;;;15.16;100.00;101477.38;6148618;23;20736;-66
2022/09/25 10:15:40;;;;;;;4.40;0.90;;;;;;;14.87;100.00;101463.31;6148778;23;20401;-67
2022/09/25 10:18:07;;;;;;;2.90;0.80;;;;;;;14.68;100.00;101446.13;6149311;23;20827;-67
2022/09/25 10:20:41;;;;;;;1.57;0.70;;;;;;;14.88;100.00;101474.94;6149976;23;20459;-67
2022/09/25 10:23:46;;;;;;;1.80;0.80;;;;;;;14.87;100.00;101449.00;6144822;23;20372;-71
2022/09/25 10:26:36;;;;;;;2.33;0.70;;;;;;;15.25;100.00;101469.84;6123296;23;20428;-68
2022/09/25 10:29:04;;;;;;;2.50;1.00;;;;;;;15.34;100.00;101473.97;6146893;23;20372;-67
2022/09/25 10:31:34;;;;;;;5.17;1.20;;;;;;;15.38;100.00;101458.97;6149351;23;20373;-67
2022/09/25 10:34:21;;;;;;;3.43;1.10;;;;;;;14.88;100.00;101375.84;6147818;23;20397;-67
2022/09/25 10:36:50;;;;;;;5.00;0.80;;;;;;;15.36;100.00;101431.31;6148745;23;20373;-67
2022/09/25 10:39:33;;;;;;;1.90;0.80;;;;;;;15.52;100.00;101459.72;6149089;23;20435;-67
2022/09/25 10:42:00;;;;;;;2.60;0.97;;;;;;;15.52;100.00;101455.16;6145045;23;20381;-67
2022/09/25 10:44:32;;;;;;;4.73;1.20;;;;;;;15.71;100.00;101474.22;6142431;23;20940;-67
2022/09/25 10:58:34;;;;;;;4.10;1.00;;;;;;;15.74;100.00;101460.28;5110865;27;20585;-68
2022/09/25 11:01:02;;;;;;;7.07;1.30;;;;;;;15.51;100.00;101448.09;5109875;28;20448;-68
2022/09/25 11:28:38;;;;;;;2.70;1.00;;;;;;;15.66;100.00;101323.41;5087664;27;20829;-67
2022/09/25 11:31:39;;;;;;;2.13;0.80;;;;;;;16.35;100.00;101415.44;5088763;28;21023;-68
2022/09/25 11:34:23;;;;;;;4.20;1.43;;;;;;;16.48;100.00;101426.13;5076654;28;21380;-67
2022/09/25 11:37:00;;;;;;;5.90;1.03;;;;;;;15.75;100.00;101345.63;5078549;28;20519;-68
2022/09/25 11:42:43;;;;;;;3.03;0.97;;;;;;;15.45;100.00;101396.75;5073281;28;20509;-68
2022/09/25 11:45:23;;;;;;;2.93;0.90;;;;;;;15.52;100.00;101433.53;5074281;28;20455;-68
2022/09/25 11:48:24;;;;;;;2.30;0.90;;;;;;;15.50;100.00;101441.00;5088794;28;20543;-68
2022/09/25 11:51:02;;;;;;;2.37;0.87;;;;;;;15.52;100.00;101436.22;5065890;28;20956;-68
2022/09/25 11:54:00;;;;;;;4.53;1.27;;;;;;;15.56;100.00;101437.47;5078194;28;20864;-68
2022/09/25 11:56:45;;;;;;;3.97;0.90;;;;;;;15.68;100.00;101429.50;5073999;28;20427;-66
2022/09/25 11:59:38;;;;;;;3.50;0.90;;;;;;;15.73;100.00;101434.25;5084301;22;20497;-76
2022/09/25 12:02:23;;;;;;;4.93;1.07;;;;;;;13.98;100.00;101097.00;5053637;28;20675;-75
2022/09/25 12:05:17;;;;;;;3.70;1.40;;;;;;;14.68;100.00;101127.53;5051673;28;20485;-76
2022/09/25 12:08:07;;;;;;;4.23;1.07;;;;;;;16.67;100.00;101408.03;5051157;28;21038;-75
2022/09/25 12:10:40;;;;;;;2.97;0.90;;;;;;;16.39;100.00;101408.53;5080900;28;20454;-76
2022/09/25 12:13:35;;;;;;;5.07;0.87;;;;;;;14.90;100.00;101275.72;5067052;28;20519;-76
2022/09/25 12:16:28;;;;;;;3.47;1.07;;;;;;;15.88;100.00;101404.19;5070876;28;20452;-77
2022/09/25 12:19:22;;;;;;;3.50;0.77;;;;;;;14.66;100.00;101237.59;5073753;28;20459;-76
2022/09/25 12:22:12;;;;;;;4.17;1.10;;;;;;;13.55;100.00;101011.34;5071088;28;20451;-76
2022/09/25 12:25:00;;;;;;;4.47;1.10;;;;;;;16.46;100.00;101391.16;5081607;28;21136;-76
2022/09/25 12:27:44;;;;;;;6.00;1.20;;;;;;;16.81;100.00;101398.72;5075985;28;20460;-76
2022/09/25 12:30:25;;;;;;;2.10;0.83;;;;;;;15.90;100.00;101197.31;5090596;28;20483;-76
2022/09/25 12:33:17;;;;;;;1.57;0.70;;;;;;;16.81;100.00;101306.63;5081012;28;20435;-75